This is the latest recevied weather packets stored in our database for station/object WO5CID. If no packets are shown the sender has not sent any weather packets the latest 10 day(s).
| Time | Temp. | Humidity | Pressure | Rain* | Wind** | Luminosity | Snow |
|---|---|---|---|---|---|---|---|
| 1778163465 | 31.11° C | 45% | 1014.7 hPa | 0 mm | - | 648 W/m² | - |
| 1778163163 | 30° C | 49% | 1014.6 hPa | 0 mm | - | 623 W/m² | - |
| 1778162858 | 30° C | 50% | 1014.7 hPa | 0 mm | - | 603 W/m² | - |
| 1778162556 | 29.44° C | 54% | 1014.8 hPa | 0 mm | - | 591 W/m² | - |
| 1778162253 | 29.44° C | 52% | 1014.8 hPa | 0 mm | - | 571 W/m² | - |
| 1778161950 | 29.44° C | 54% | 1015.1 hPa | 0 mm | - | 550 W/m² | - |
| 1778161646 | 28.33° C | 56% | 1015.1 hPa | 0 mm | - | 536 W/m² | - |
| 1778161343 | 28.33° C | 58% | 1015 hPa | 0 mm | - | 512 W/m² | - |
| 1778161039 | 28.33° C | 59% | 1015 hPa | 0 mm | - | 496 W/m² | - |
| 1778160736 | 28.33° C | 60% | 1015 hPa | 0 mm | - | 482 W/m² | - |
| 1778160433 | 27.78° C | 60% | 1015 hPa | 0 mm | - | 460 W/m² | - |
| 1778160130 | 27.22° C | 65% | 1015 hPa | 0 mm | - | 437 W/m² | - |
| 1778159827 | 27.22° C | 66% | 1014.9 hPa | 0 mm | - | 419 W/m² | - |
| 1778159524 | 26.67° C | 68% | 1015 hPa | 0 mm | - | 399 W/m² | - |
| 1778159220 | 26.11° C | 70% | 1015 hPa | 0 mm | - | 380 W/m² | - |
| 1778158918 | 25.56° C | 70% | 1014.8 hPa | 0 mm | - | 361 W/m² | - |
| 1778158617 | 25° C | 72% | 1015.2 hPa | 0 mm | - | 339 W/m² | - |
| 1778158314 | 25° C | 74% | 1015.3 hPa | 0 mm | - | 326 W/m² | - |
| 1778158010 | 23.89° C | 78% | 1015.2 hPa | 0 mm | - | 305 W/m² | - |
| 1778157708 | 23.89° C | 78% | 1015.2 hPa | 0 mm | - | 285 W/m² | - |
| 1778157406 | 23.33° C | 81% | 1015.1 hPa | 0 mm | - | 250 W/m² | - |
| 1778157103 | 22.78° C | 84% | 1015 hPa | 0 mm | - | 188 W/m² | - |
| 1778156798 | 22.22° C | 87% | 1015 hPa | 0 mm | - | 126 W/m² | - |
| 1778156494 | 21.67° C | 87% | 1015.1 hPa | 0 mm | - | 84 W/m² | - |
| 1778156190 | 21.67° C | 89% | 1015 hPa | 0 mm | - | 86 W/m² | - |
* Rain latest hour (hover to see other rain measurements)
** Current wind speed in m/s (hover to see current wind gust speed)